world map with KRCM marked

KRCM - Airport

This information may not be accurate or current and is not valid for navigation or flight planning. No warranty of fitness for any purpose is made or implied.

flag of Missouriflag of United States

Donate via PayPal

Additional information is available on the NEW Great Circle Mapper

Location
City:  Warrensburg, Missouri, United States
Name:Skyhaven Airport
ICAO:KRCM
FAA:RCM

Details
Type:Airport (Airfield)
Use:Public/Civil
Latitude:38°47'03"N (38.784167)
Longitude:93°48'10"W (-93.802860)
Datum:WGS 1984
Elevation:798 ft (243 m)
Runways:2
Longest:4206 × 75 ft (1282 × 23 m)

Time
Timezone:UTC+28:08 (DST+31:08)
Local Time:

Weather
METAR:KRCM  231435Z AUTO 04005KT 10SM CLR 09/03 A3033 RMK AO2

Related Locations
Nearby:
Farthest:YAUG: 10810 mi / 17397 km
Augusta [Augusta Airport], WA, AU

Find:

   beyond  
but within

Other Information
Maps:
Links:
Sources:

  

Sectional Chart

Flight Planning
at skyvector.com

 


Great Circle Mapper   Great Circle Mapper
Great Circle Mapper FAQ   Great Circle Mapper FAQ
  Karl's Home Page
KLSē   KLSē Home
   GC on Facebook
Airlines of the World   Airlines of the World
Donate via PayPal


Copyright © 2004-2018, Karl L. Swartz. All rights reserved.
All trademarks mentioned herein belong to their respective owners.

Please see credits for attribution and copyright information.

Karl Swartz <karl@kls2.com>
  Powered by FreeBSD
Valid HTML 4.01!
Labeled with ICRA
hCard Microformat
Geo Microformat